createdAt,value
2023-03-06T00:00:25.454Z,10.27
2023-03-06T00:02:52.393Z,9.90
2023-03-06T00:05:19.153Z,11.10
2023-03-06T00:07:45.653Z,10.75
2023-03-06T00:10:20.632Z,10.57
2023-03-06T00:12:47.010Z,10.85
2023-03-06T00:15:13.865Z,10.70
2023-03-06T00:17:40.908Z,11.57
2023-03-06T00:20:09.603Z,10.57
2023-03-06T00:22:35.952Z,10.82
2023-03-06T00:25:02.320Z,10.65
2023-03-06T00:27:30.746Z,11.52
2023-03-06T00:29:58.587Z,11.57
2023-03-06T00:32:25.884Z,11.25
2023-03-06T00:34:53.627Z,9.88
2023-03-06T00:37:21.397Z,10.18
2023-03-06T00:39:51.934Z,10.48
2023-03-06T00:42:19.334Z,10.05
2023-03-06T00:44:46.488Z,9.93
2023-03-06T00:47:16.949Z,9.15
2023-03-06T00:49:46.313Z,8.65
2023-03-06T00:52:13.073Z,7.95
2023-03-06T00:54:40.664Z,8.45
2023-03-06T00:57:07.935Z,8.23
2023-03-06T00:59:34.413Z,8.00
2023-03-06T01:02:00.837Z,7.43
2023-03-06T01:04:27.451Z,7.07
2023-03-06T01:06:53.851Z,7.15
2023-03-06T01:09:20.491Z,5.65
2023-03-06T01:11:46.837Z,5.70
2023-03-06T01:14:13.295Z,6.15
2023-03-06T01:16:39.792Z,5.43
2023-03-06T01:19:06.240Z,5.05
2023-03-06T01:21:32.672Z,5.20
2023-03-06T01:23:59.016Z,5.50
2023-03-06T01:26:25.354Z,5.00
2023-03-06T01:28:51.706Z,5.30
2023-03-06T01:31:18.113Z,4.65
2023-03-06T01:33:44.558Z,5.05
2023-03-06T01:36:12.668Z,4.03
2023-03-06T01:38:39.288Z,4.90
2023-03-06T01:41:06.315Z,4.75
2023-03-06T01:43:37.900Z,5.13
2023-03-06T01:46:25.260Z,4.47
2023-03-06T01:49:05.986Z,5.75
2023-03-06T01:51:38.218Z,6.30
2023-03-06T01:54:10.507Z,6.30
2023-03-06T01:56:37.757Z,6.82
2023-03-06T01:59:04.703Z,7.00
2023-03-06T02:01:32.149Z,6.05
2023-03-06T02:04:00.045Z,6.75
2023-03-06T02:06:26.901Z,6.75
2023-03-06T02:08:54.208Z,6.85
2023-03-06T02:11:23.105Z,6.85
2023-03-06T02:13:51.602Z,6.82
2023-03-06T02:16:21.776Z,6.68
2023-03-06T02:18:49.126Z,6.93
2023-03-06T02:21:21.570Z,7.60
2023-03-06T02:24:19.661Z,6.82
2023-03-06T02:26:46.770Z,7.35
2023-03-06T02:29:14.877Z,7.05
2023-03-06T02:31:41.609Z,7.82
2023-03-06T02:34:14.049Z,7.93
2023-03-06T02:36:48.387Z,8.00
2023-03-06T02:39:16.233Z,8.20
2023-03-06T02:41:42.664Z,8.43
2023-03-06T02:44:10.410Z,8.88
2023-03-06T02:46:37.691Z,9.32
2023-03-06T02:49:04.063Z,8.70
2023-03-06T02:51:30.966Z,9.68
2023-03-06T02:53:57.304Z,8.50
2023-03-06T02:56:23.692Z,11.82
2023-03-06T02:58:50.184Z,11.07
2023-03-06T03:01:16.642Z,10.70
2023-03-06T03:03:43.133Z,11.57
2023-03-06T03:06:10.489Z,11.50
2023-03-06T03:08:37.214Z,12.05
2023-03-06T03:11:04.683Z,12.95
2023-03-06T03:13:37.662Z,12.30
2023-03-06T03:16:08.164Z,11.82
2023-03-06T03:18:35.136Z,11.52
2023-03-06T03:21:01.985Z,12.93
2023-03-06T03:23:28.382Z,12.38
2023-03-06T03:26:08.951Z,12.88
2023-03-06T03:28:45.357Z,12.40
2023-03-06T03:31:18.379Z,12.82
2023-03-06T03:33:44.929Z,12.50
2023-03-06T03:36:12.419Z,12.85
2023-03-06T03:38:42.244Z,11.75
2023-03-06T03:41:08.743Z,12.57
2023-03-06T03:43:35.822Z,13.27
2023-03-06T03:46:02.251Z,13.05
2023-03-06T03:48:28.691Z,13.63
2023-03-06T03:51:04.652Z,12.13
2023-03-06T03:53:31.492Z,11.95
2023-03-06T03:55:57.949Z,12.02
2023-03-06T03:58:24.703Z,12.13
2023-03-06T04:00:51.107Z,12.52
2023-03-06T04:03:17.646Z,11.80
2023-03-06T04:05:45.424Z,11.48
2023-03-06T04:08:14.500Z,11.63
2023-03-06T04:10:43.587Z,11.80
2023-03-06T04:13:11.689Z,10.82
2023-03-06T04:15:41.947Z,10.55
2023-03-06T04:18:08.890Z,10.52
2023-03-06T04:20:35.971Z,10.80
2023-03-06T04:23:03.520Z,10.70
2023-03-06T04:25:30.015Z,10.27
2023-03-06T04:27:57.956Z,11.00
2023-03-06T04:30:24.678Z,10.48
2023-03-06T04:32:51.055Z,11.27
2023-03-06T04:35:18.067Z,10.90
2023-03-06T04:37:53.969Z,9.55
2023-03-06T04:40:29.204Z,9.80
2023-03-06T04:42:57.469Z,9.95
2023-03-06T04:45:25.275Z,10.43
2023-03-06T04:47:51.656Z,9.85
2023-03-06T04:50:18.656Z,9.98
2023-03-06T04:52:45.035Z,8.40
2023-03-06T04:55:14.348Z,8.85
2023-03-06T04:57:42.726Z,8.60
2023-03-06T05:00:14.001Z,8.35
2023-03-06T05:02:42.814Z,8.38
2023-03-06T05:05:10.709Z,7.63
2023-03-06T05:07:37.349Z,7.72
2023-03-06T05:10:04.201Z,7.40
2023-03-06T05:12:30.612Z,7.18
2023-03-06T05:14:57.981Z,6.05
2023-03-06T05:17:24.325Z,6.45
2023-03-06T05:19:50.753Z,6.53
2023-03-06T05:22:17.092Z,5.03
2023-03-06T05:24:43.525Z,6.10
2023-03-06T05:27:09.879Z,5.65
2023-03-06T05:29:36.244Z,5.07
2023-03-06T05:32:02.708Z,4.85
2023-03-06T05:34:29.141Z,4.78
2023-03-06T05:36:56.649Z,4.18
2023-03-06T05:39:23.077Z,4.32
2023-03-06T05:41:49.426Z,4.05
2023-03-06T05:44:15.895Z,3.90
2023-03-06T05:46:42.271Z,5.30
2023-03-06T05:49:08.722Z,4.32
2023-03-06T05:51:35.199Z,5.30
2023-03-06T05:54:01.526Z,5.38
2023-03-06T05:56:34.565Z,5.55
2023-03-06T05:59:00.921Z,6.78
2023-03-06T06:01:28.399Z,6.70
2023-03-06T06:03:54.756Z,7.93
2023-03-06T06:06:21.139Z,8.68
2023-03-06T06:08:47.494Z,8.45
2023-03-06T06:11:14.503Z,8.60
2023-03-06T06:13:41.867Z,10.13
2023-03-06T06:16:18.756Z,10.35
2023-03-06T06:18:45.613Z,9.35
2023-03-06T06:21:14.354Z,10.18
2023-03-06T06:23:41.188Z,10.20
2023-03-06T06:26:08.646Z,10.63
2023-03-06T06:28:35.547Z,9.75
2023-03-06T06:31:10.631Z,10.00
2023-03-06T06:33:37.042Z,10.77
2023-03-06T06:36:03.647Z,11.40
2023-03-06T06:38:30.141Z,10.02
2023-03-06T06:41:27.164Z,10.45
2023-03-06T06:43:42.901Z,10.88
2023-03-06T06:46:32.351Z,11.95
2023-03-06T06:48:56.025Z,10.65
2023-03-06T06:51:22.846Z,10.10
2023-03-06T06:53:52.064Z,10.27
2023-03-06T06:56:18.460Z,8.68
2023-03-06T06:58:44.851Z,8.93
2023-03-06T07:01:13.206Z,9.38
2023-03-06T07:03:40.899Z,8.88
2023-03-06T07:06:07.833Z,9.38
2023-03-06T07:08:34.611Z,9.00
2023-03-06T07:11:06.673Z,8.27
2023-03-06T07:13:33.147Z,8.75
2023-03-06T07:15:59.712Z,8.55
2023-03-06T07:18:26.163Z,8.23
2023-03-06T07:20:56.591Z,8.95
2023-03-06T07:23:23.640Z,8.40
2023-03-06T07:25:50.493Z,8.50
2023-03-06T07:28:18.691Z,8.27
2023-03-06T07:30:46.090Z,8.88
2023-03-06T07:33:12.719Z,8.65
2023-03-06T07:35:39.950Z,7.68
2023-03-06T07:38:06.311Z,9.07
2023-03-06T07:40:32.647Z,10.13
2023-03-06T07:43:09.406Z,9.20
2023-03-06T07:45:56.122Z,9.00
2023-03-06T07:48:22.629Z,10.30
2023-03-06T07:51:02.175Z,8.70
2023-03-06T07:53:29.040Z,9.48
2023-03-06T07:55:55.939Z,8.38
2023-03-06T07:58:22.700Z,9.15
2023-03-06T08:00:49.360Z,8.27
2023-03-06T08:03:16.563Z,8.10
2023-03-06T08:05:44.682Z,7.80
2023-03-06T08:08:11.997Z,7.30
2023-03-06T08:10:38.356Z,7.88
2023-03-06T08:13:04.711Z,10.20
2023-03-06T08:15:31.066Z,9.05
2023-03-06T08:17:57.494Z,8.50
2023-03-06T08:20:23.857Z,9.88
2023-03-06T08:22:50.646Z,8.90
2023-03-06T08:25:17.096Z,9.00
2023-03-06T08:27:43.721Z,9.68
2023-03-06T08:30:10.605Z,8.50
2023-03-06T08:32:37.798Z,8.90
2023-03-06T08:35:05.036Z,8.23
2023-03-06T08:37:31.465Z,8.32
2023-03-06T08:39:58.567Z,8.57
2023-03-06T08:42:24.986Z,8.70
2023-03-06T08:44:51.384Z,8.57
2023-03-06T08:47:17.767Z,9.98
2023-03-06T08:49:44.163Z,10.05
2023-03-06T08:52:11.061Z,10.15
2023-03-06T08:54:38.582Z,10.60
2023-03-06T08:57:05.054Z,9.68
2023-03-06T08:59:31.418Z,9.82
2023-03-06T09:01:57.850Z,9.63
2023-03-06T09:04:24.284Z,10.13
2023-03-06T09:06:50.718Z,12.23
2023-03-06T09:09:17.070Z,11.07
2023-03-06T09:11:43.428Z,10.30
2023-03-06T09:14:09.825Z,10.50
2023-03-06T09:16:36.288Z,10.63
2023-03-06T09:19:02.716Z,9.85
2023-03-06T09:21:29.081Z,9.75
2023-03-06T09:23:55.877Z,9.13
2023-03-06T09:26:28.025Z,9.65
2023-03-06T09:28:59.384Z,10.18
2023-03-06T09:31:25.745Z,7.75
2023-03-06T09:33:52.107Z,7.32
2023-03-06T09:36:22.654Z,6.35
2023-03-06T09:38:49.893Z,7.18
2023-03-06T09:41:34.191Z,6.28
2023-03-06T09:44:05.087Z,5.00
2023-03-06T09:46:47.099Z,6.18
2023-03-06T09:49:33.374Z,6.03
2023-03-06T09:52:31.324Z,5.57
2023-03-06T09:55:10.302Z,6.43
2023-03-06T09:57:41.228Z,5.38
2023-03-06T10:00:14.492Z,5.20
2023-03-06T10:02:46.124Z,5.15
2023-03-06T10:05:26.089Z,5.15
2023-03-06T10:08:16.961Z,5.82
2023-03-06T10:10:57.493Z,5.50
2023-03-06T10:13:35.433Z,6.35
2023-03-06T10:16:30.153Z,5.60
2023-03-06T10:19:01.582Z,6.30
2023-03-06T10:21:38.945Z,5.50
2023-03-06T10:24:59.400Z,5.22
2023-03-06T10:27:56.468Z,5.57
2023-03-06T10:30:38.116Z,4.85
2023-03-06T10:33:18.473Z,5.28
2023-03-06T10:35:53.836Z,5.03
2023-03-06T10:38:41.893Z,6.03
2023-03-06T10:41:10.986Z,5.80
2023-03-06T10:43:43.384Z,6.05
2023-03-06T10:46:12.499Z,5.68
2023-03-06T10:48:42.289Z,5.65
2023-03-06T10:51:19.171Z,4.63
2023-03-06T10:53:51.282Z,4.68
2023-03-06T10:56:41.400Z,5.15
2023-03-06T10:59:19.874Z,4.97
2023-03-06T11:01:49.336Z,6.85
2023-03-06T11:04:28.553Z,7.50
2023-03-06T11:07:14.395Z,6.32
2023-03-06T11:09:43.292Z,6.28
2023-03-06T11:12:30.246Z,9.77
2023-03-06T11:15:14.513Z,7.93
2023-03-06T11:18:00.492Z,24.40
2023-03-06T11:20:52.526Z,28.92
2023-03-06T11:23:34.852Z,17.15
2023-03-06T11:26:24.240Z,16.88
2023-03-06T11:29:13.314Z,5.05
2023-03-06T11:31:49.165Z,4.47
2023-03-06T11:34:40.586Z,3.97
2023-03-06T11:37:20.176Z,4.10
2023-03-06T11:39:53.265Z,3.65
2023-03-06T11:42:35.716Z,2.70
2023-03-06T11:45:37.202Z,2.67
2023-03-06T11:48:09.590Z,2.83
2023-03-06T11:50:45.048Z,3.42
2023-03-06T11:53:21.025Z,3.65
2023-03-06T11:56:14.332Z,3.58
2023-03-06T11:59:11.584Z,3.30
2023-03-06T12:02:02.397Z,3.65
2023-03-06T12:04:48.989Z,3.10
2023-03-06T12:07:32.857Z,3.53
2023-03-06T12:10:27.629Z,2.40
2023-03-06T12:13:12.426Z,2.97
2023-03-06T12:15:47.634Z,2.03
2023-03-06T12:18:21.833Z,1.85
2023-03-06T12:21:19.018Z,1.40
2023-03-06T12:24:10.802Z,1.40
2023-03-06T12:27:09.941Z,1.55
2023-03-06T12:30:06.221Z,1.55
2023-03-06T12:33:04.798Z,1.52
2023-03-06T12:35:53.554Z,1.40
2023-03-06T12:38:51.522Z,1.23
2023-03-06T12:41:31.441Z,1.23
2023-03-06T12:44:03.766Z,1.15
2023-03-06T12:46:30.513Z,1.92
2023-03-06T12:49:15.664Z,1.90
2023-03-06T12:51:45.624Z,1.40
2023-03-06T12:54:14.363Z,1.00
2023-03-06T12:56:42.945Z,1.20
2023-03-06T12:59:38.341Z,1.35
2023-03-06T13:02:14.011Z,1.20
2023-03-06T13:04:51.062Z,1.20
2023-03-06T13:07:27.667Z,1.85
2023-03-06T13:10:18.401Z,1.40
2023-03-06T13:13:01.025Z,1.25
2023-03-06T13:15:35.200Z,1.38
2023-03-06T13:18:22.261Z,1.58
2023-03-06T13:20:58.139Z,1.55
2023-03-06T13:23:33.249Z,1.17
2023-03-06T13:26:01.983Z,1.15
2023-03-06T13:28:48.540Z,1.20
2023-03-06T13:31:27.913Z,1.45
2023-03-06T13:34:00.901Z,1.15
2023-03-06T13:36:34.565Z,1.70
2023-03-06T13:39:00.886Z,1.15
2023-03-06T13:41:41.782Z,1.33
2023-03-06T13:44:23.489Z,1.38
2023-03-06T13:47:22.546Z,1.40
2023-03-06T13:49:49.158Z,1.30
2023-03-06T13:52:32.306Z,1.65
2023-03-06T13:55:29.001Z,1.65
2023-03-06T13:58:34.157Z,1.65
2023-03-06T14:01:32.185Z,1.38
2023-03-06T14:04:20.495Z,1.70
2023-03-06T14:06:51.375Z,1.88
2023-03-06T14:09:27.984Z,2.60
2023-03-06T14:12:02.534Z,1.80
2023-03-06T14:14:34.625Z,2.05
2023-03-06T14:17:05.113Z,1.88
2023-03-06T14:19:37.386Z,1.60
2023-03-06T14:22:05.692Z,1.50
2023-03-06T14:24:43.473Z,1.48
2023-03-06T14:27:18.727Z,2.13
2023-03-06T14:29:49.755Z,1.45
2023-03-06T14:32:21.311Z,1.60
2023-03-06T14:34:48.143Z,1.50
2023-03-06T14:37:22.042Z,1.52
2023-03-06T14:39:49.162Z,1.88
2023-03-06T14:42:21.216Z,1.60
2023-03-06T14:44:49.523Z,1.92
2023-03-06T14:47:30.058Z,2.30
2023-03-06T14:50:18.155Z,2.20
2023-03-06T14:52:45.084Z,2.20
2023-03-06T14:55:17.552Z,1.90
2023-03-06T14:57:44.183Z,1.80
2023-03-06T15:00:18.429Z,2.00
2023-03-06T15:02:47.154Z,1.80
2023-03-06T15:05:22.823Z,2.25
2023-03-06T15:07:50.504Z,3.35
2023-03-06T15:10:32.372Z,2.20
2023-03-06T15:13:20.933Z,2.15
2023-03-06T15:16:00.847Z,1.90
2023-03-06T15:18:35.218Z,2.13
2023-03-06T15:21:21.240Z,2.55
2023-03-06T15:23:50.409Z,2.72
2023-03-06T15:26:37.764Z,2.35
2023-03-06T15:29:21.822Z,1.80
2023-03-06T15:31:48.602Z,2.47
2023-03-06T15:34:18.581Z,2.35
2023-03-06T15:36:54.166Z,2.38
2023-03-06T15:39:40.845Z,2.00
2023-03-06T15:42:14.443Z,2.00
2023-03-06T15:44:40.933Z,1.50
2023-03-06T15:47:13.413Z,1.50
2023-03-06T15:49:40.154Z,1.65
2023-03-06T15:52:07.081Z,1.65
2023-03-06T15:54:33.613Z,1.50
2023-03-06T15:57:00.636Z,1.50
2023-03-06T15:59:33.048Z,1.60
2023-03-06T16:02:10.794Z,1.90
2023-03-06T16:04:37.164Z,1.65
2023-03-06T16:07:04.108Z,1.50
2023-03-06T16:09:30.472Z,1.38
2023-03-06T16:11:57.871Z,1.75
2023-03-06T16:14:24.302Z,1.63
2023-03-06T16:16:53.920Z,1.52
2023-03-06T16:19:26.510Z,1.60
2023-03-06T16:21:54.064Z,2.03
2023-03-06T16:24:20.488Z,2.45
2023-03-06T16:26:55.109Z,1.60
2023-03-06T16:29:26.174Z,1.40
2023-03-06T16:31:55.108Z,2.00
2023-03-06T16:34:21.804Z,2.20
2023-03-06T16:36:56.536Z,1.92
2023-03-06T16:39:24.056Z,1.70
2023-03-06T16:41:51.503Z,1.70
2023-03-06T16:44:18.605Z,2.15
2023-03-06T16:46:48.073Z,2.08
2023-03-06T16:49:19.869Z,1.90
2023-03-06T16:51:46.704Z,1.85
2023-03-06T16:54:13.442Z,2.42
2023-03-06T16:56:39.868Z,1.67
2023-03-06T16:59:06.495Z,1.75
2023-03-06T17:01:32.924Z,1.70
2023-03-06T17:03:59.487Z,1.60
2023-03-06T17:06:25.870Z,1.60
2023-03-06T17:08:52.286Z,1.60
2023-03-06T17:11:20.216Z,2.03
2023-03-06T17:13:47.558Z,2.38
2023-03-06T17:16:17.869Z,2.15
2023-03-06T17:18:45.364Z,2.42
2023-03-06T17:21:15.338Z,1.60
2023-03-06T17:23:41.929Z,1.98
2023-03-06T17:26:14.477Z,2.00
2023-03-06T17:28:41.781Z,2.45
2023-03-06T17:31:20.912Z,2.25
2023-03-06T17:33:48.020Z,2.13
2023-03-06T17:36:16.323Z,2.40
2023-03-06T17:38:43.058Z,2.30
2023-03-06T17:41:10.871Z,2.40
2023-03-06T17:43:39.456Z,2.65
2023-03-06T17:46:08.760Z,2.70
2023-03-06T17:48:36.131Z,3.00
2023-03-06T17:51:03.392Z,3.20
2023-03-06T17:53:29.889Z,2.90
2023-03-06T17:56:03.092Z,3.30
2023-03-06T17:58:35.767Z,2.95
2023-03-06T18:01:30.076Z,2.78
2023-03-06T18:03:57.101Z,4.57
2023-03-06T18:06:24.942Z,8.43
2023-03-06T18:08:58.340Z,5.25
2023-03-06T18:11:24.875Z,4.65
2023-03-06T18:13:51.563Z,3.67
2023-03-06T18:16:20.974Z,4.07
2023-03-06T18:18:47.472Z,3.70
2023-03-06T18:21:15.162Z,3.55
2023-03-06T18:23:41.661Z,3.28
2023-03-06T18:26:23.472Z,4.03
2023-03-06T18:28:55.171Z,3.50
2023-03-06T18:31:25.243Z,54.00
2023-03-06T18:34:04.132Z,23.60
2023-03-06T18:36:36.349Z,9.90
2023-03-06T18:39:05.882Z,5.93
2023-03-06T18:41:32.513Z,3.80
2023-03-06T18:44:00.755Z,2.80
2023-03-06T18:46:32.686Z,3.47
2023-03-06T18:48:59.211Z,3.25
2023-03-06T18:51:25.690Z,3.70
2023-03-06T18:53:52.417Z,2.97
2023-03-06T18:56:21.521Z,3.53
2023-03-06T18:58:50.151Z,3.75
2023-03-06T19:01:17.130Z,3.25
2023-03-06T19:03:43.595Z,2.47
2023-03-06T19:06:14.910Z,2.85
2023-03-06T19:08:41.413Z,3.80
2023-03-06T19:11:11.133Z,4.53
2023-03-06T19:13:37.863Z,5.30
2023-03-06T19:16:05.071Z,5.47
2023-03-06T19:18:31.638Z,4.03
2023-03-06T19:21:12.265Z,3.88
2023-03-06T19:23:39.530Z,3.47
2023-03-06T19:26:07.458Z,3.75
2023-03-06T19:28:35.804Z,3.55
2023-03-06T19:31:20.105Z,3.50
2023-03-06T19:33:48.629Z,4.10
2023-03-06T19:36:16.839Z,4.60
2023-03-06T19:38:43.413Z,3.47
2023-03-06T19:41:13.684Z,4.03
2023-03-06T19:43:41.674Z,4.82
2023-03-06T19:46:14.876Z,4.30
2023-03-06T19:48:42.240Z,4.32
2023-03-06T19:51:09.522Z,4.28
2023-03-06T19:53:36.182Z,4.55
2023-03-06T19:56:11.289Z,4.18
2023-03-06T19:58:38.214Z,4.90
2023-03-06T20:01:06.272Z,5.97
2023-03-06T20:03:32.692Z,4.30
2023-03-06T20:05:59.094Z,3.65
2023-03-06T20:08:25.432Z,3.70
2023-03-06T20:10:51.789Z,2.97
2023-03-06T20:13:18.200Z,4.38
2023-03-06T20:15:44.535Z,3.90
2023-03-06T20:18:11.049Z,6.13
2023-03-06T20:20:39.092Z,6.60
2023-03-06T20:23:05.790Z,6.68
2023-03-06T20:25:34.879Z,9.07
2023-03-06T20:28:01.657Z,7.10
2023-03-06T20:30:37.449Z,5.13
2023-03-06T20:33:04.282Z,5.30
2023-03-06T20:35:30.673Z,4.40
2023-03-06T20:37:57.075Z,3.55
2023-03-06T20:40:23.480Z,4.28
2023-03-06T20:42:49.887Z,4.30
2023-03-06T20:45:16.314Z,4.95
2023-03-06T20:47:47.143Z,4.90
2023-03-06T20:50:16.344Z,4.60
2023-03-06T20:52:42.786Z,5.30
2023-03-06T20:55:09.332Z,4.93
2023-03-06T20:57:35.701Z,5.15
2023-03-06T21:00:02.556Z,4.82
2023-03-06T21:02:28.918Z,5.22
2023-03-06T21:04:55.301Z,4.95
2023-03-06T21:07:22.330Z,5.07
2023-03-06T21:09:49.655Z,5.10
2023-03-06T21:12:16.028Z,4.80
2023-03-06T21:14:42.438Z,5.30
2023-03-06T21:17:08.791Z,5.20
2023-03-06T21:19:36.622Z,5.05
2023-03-06T21:22:03.152Z,5.38
2023-03-06T21:24:29.609Z,5.47
2023-03-06T21:26:55.970Z,5.28
2023-03-06T21:29:22.310Z,4.93
2023-03-06T21:31:48.679Z,5.50
2023-03-06T21:34:15.079Z,5.10
2023-03-06T21:36:42.823Z,5.28
2023-03-06T21:39:09.230Z,5.38
2023-03-06T21:41:35.696Z,4.95
2023-03-06T21:44:04.183Z,5.25
2023-03-06T21:46:31.164Z,4.93
2023-03-06T21:48:58.373Z,4.60
2023-03-06T21:51:25.672Z,5.93
2023-03-06T21:53:52.750Z,4.80
2023-03-06T21:56:22.332Z,5.18
2023-03-06T21:58:48.689Z,5.53
2023-03-06T22:01:21.937Z,5.10
2023-03-06T22:03:48.542Z,4.88
2023-03-06T22:06:19.636Z,4.90
2023-03-06T22:08:46.755Z,4.55
2023-03-06T22:11:15.816Z,5.18
2023-03-06T22:13:43.369Z,4.80
2023-03-06T22:16:10.263Z,5.35
2023-03-06T22:18:36.994Z,5.40
2023-03-06T22:21:08.467Z,5.18
2023-03-06T22:23:34.976Z,5.40
2023-03-06T22:26:06.498Z,4.72
2023-03-06T22:28:33.041Z,5.82
2023-03-06T22:31:04.396Z,5.70
2023-03-06T22:33:30.751Z,5.57
2023-03-06T22:36:06.212Z,5.30
2023-03-06T22:38:34.249Z,4.93
2023-03-06T22:41:00.598Z,5.40
2023-03-06T22:43:26.947Z,5.63
2023-03-06T22:45:53.397Z,5.38
2023-03-06T22:48:20.862Z,5.50
2023-03-06T22:50:47.381Z,4.38
2023-03-06T22:53:13.762Z,5.40
2023-03-06T22:55:40.130Z,5.43
2023-03-06T22:58:06.537Z,6.15
2023-03-06T23:00:32.920Z,6.53
2023-03-06T23:02:59.407Z,6.28
2023-03-06T23:05:27.410Z,6.60
2023-03-06T23:07:55.506Z,7.57
2023-03-06T23:10:21.857Z,7.40
2023-03-06T23:13:07.012Z,7.93
2023-03-06T23:15:52.233Z,9.02
2023-03-06T23:18:39.038Z,9.43
2023-03-06T23:21:24.307Z,10.50
2023-03-06T23:24:13.585Z,10.73
2023-03-06T23:26:46.641Z,11.43
2023-03-06T23:29:16.410Z,12.95
2023-03-06T23:31:42.850Z,12.27
2023-03-06T23:34:11.392Z,12.25
2023-03-06T23:36:44.835Z,12.30
2023-03-06T23:39:14.988Z,13.32
2023-03-06T23:41:41.465Z,14.48
2023-03-06T23:44:08.111Z,13.57
2023-03-06T23:46:34.528Z,15.40
2023-03-06T23:49:00.912Z,16.83
2023-03-06T23:51:27.288Z,16.05
2023-03-06T23:53:56.467Z,16.13
2023-03-06T23:56:24.364Z,16.92
2023-03-06T23:58:50.741Z,16.63
